sensor_id;sensor_type;location;lat;lon;timestamp;temperature;humidity
24632;DHT22;59977;48.782;9.190;2023-11-22T00:00:54;9.40;99.90
24632;DHT22;59977;48.782;9.190;2023-11-22T00:05:46;9.60;99.90
24632;DHT22;59977;48.782;9.190;2023-11-22T00:08:12;8.90;99.90
24632;DHT22;59977;48.782;9.190;2023-11-22T00:10:38;8.80;99.90
24632;DHT22;59977;48.782;9.190;2023-11-22T00:13:07;8.60;99.90
24632;DHT22;59977;48.782;9.190;2023-11-22T00:15:33;8.80;99.90
24632;DHT22;59977;48.782;9.190;2023-11-22T00:17:58;8.10;99.90
24632;DHT22;59977;48.782;9.190;2023-11-22T00:22:54;8.30;99.90
24632;DHT22;59977;48.782;9.190;2023-11-22T00:30:13;8.10;99.90
24632;DHT22;59977;48.782;9.190;2023-11-22T00:32:39;7.80;99.90
24632;DHT22;59977;48.782;9.190;2023-11-22T00:37:33;7.90;99.90
24632;DHT22;59977;48.782;9.190;2023-11-22T01:01:55;8.00;99.90
24632;DHT22;59977;48.782;9.190;2023-11-22T01:04:21;7.80;99.90
24632;DHT22;59977;48.782;9.190;2023-11-22T01:09:12;7.20;99.90
24632;DHT22;59977;48.782;9.190;2023-11-22T01:11:39;7.20;99.90
24632;DHT22;59977;48.782;9.190;2023-11-22T01:14:05;7.60;99.90
24632;DHT22;59977;48.782;9.190;2023-11-22T01:16:30;7.50;99.90
24632;DHT22;59977;48.782;9.190;2023-11-22T01:18:56;7.50;99.90
24632;DHT22;59977;48.782;9.190;2023-11-22T01:21:22;7.50;99.90
24632;DHT22;59977;48.782;9.190;2023-11-22T01:26:13;7.30;99.90
24632;DHT22;59977;48.782;9.190;2023-11-22T01:28:39;7.40;99.90
24632;DHT22;59977;48.782;9.190;2023-11-22T01:33:36;7.10;99.90
24632;DHT22;59977;48.782;9.190;2023-11-22T01:38:28;6.70;99.90
24632;DHT22;59977;48.782;9.190;2023-11-22T01:40:54;7.30;99.90
24632;DHT22;59977;48.782;9.190;2023-11-22T01:45:49;7.20;99.90
24632;DHT22;59977;48.782;9.190;2023-11-22T01:50:42;6.90;99.90
24632;DHT22;59977;48.782;9.190;2023-11-22T01:55:39;7.00;99.90
24632;DHT22;59977;48.782;9.190;2023-11-22T01:58:05;7.10;99.90
24632;DHT22;59977;48.782;9.190;2023-11-22T02:05:27;7.00;99.90
24632;DHT22;59977;48.782;9.190;2023-11-22T02:15:12;6.60;99.90
24632;DHT22;59977;48.782;9.190;2023-11-22T02:17:37;6.80;99.90
24632;DHT22;59977;48.782;9.190;2023-11-22T02:20:03;6.50;99.90
24632;DHT22;59977;48.782;9.190;2023-11-22T02:22:45;6.70;99.90
24632;DHT22;59977;48.782;9.190;2023-11-22T02:25:12;6.40;99.90
24632;DHT22;59977;48.782;9.190;2023-11-22T02:30:05;6.50;99.90
24632;DHT22;59977;48.782;9.190;2023-11-22T02:32:31;6.60;99.90
24632;DHT22;59977;48.782;9.190;2023-11-22T02:34:57;6.70;99.90
24632;DHT22;59977;48.782;9.190;2023-11-22T02:37:22;6.80;99.90
24632;DHT22;59977;48.782;9.190;2023-11-22T02:40:16;6.60;99.90
24632;DHT22;59977;48.782;9.190;2023-11-22T02:42:43;6.80;99.90
24632;DHT22;59977;48.782;9.190;2023-11-22T02:45:09;6.60;99.90
24632;DHT22;59977;48.782;9.190;2023-11-22T02:47:35;6.50;99.90
24632;DHT22;59977;48.782;9.190;2023-11-22T02:50:02;6.70;99.90
24632;DHT22;59977;48.782;9.190;2023-11-22T02:52:28;6.80;99.90
24632;DHT22;59977;48.782;9.190;2023-11-22T02:57:19;6.60;99.90
24632;DHT22;59977;48.782;9.190;2023-11-22T03:02:11;6.50;99.90
24632;DHT22;59977;48.782;9.190;2023-11-22T03:04:37;6.40;99.90
24632;DHT22;59977;48.782;9.190;2023-11-22T03:07:03;6.30;99.90
24632;DHT22;59977;48.782;9.190;2023-11-22T03:09:28;6.30;99.90
24632;DHT22;59977;48.782;9.190;2023-11-22T03:11:55;6.40;99.90
24632;DHT22;59977;48.782;9.190;2023-11-22T03:19:13;6.10;99.90
24632;DHT22;59977;48.782;9.190;2023-11-22T03:21:40;6.30;99.90
24632;DHT22;59977;48.782;9.190;2023-11-22T03:24:07;6.40;99.90
24632;DHT22;59977;48.782;9.190;2023-11-22T03:26:34;6.00;99.90
24632;DHT22;59977;48.782;9.190;2023-11-22T03:31:26;6.00;99.90
24632;DHT22;59977;48.782;9.190;2023-11-22T03:33:53;6.00;99.90
24632;DHT22;59977;48.782;9.190;2023-11-22T03:38:46;6.30;99.90
24632;DHT22;59977;48.782;9.190;2023-11-22T03:41:11;6.50;99.90
24632;DHT22;59977;48.782;9.190;2023-11-22T03:43:37;6.10;99.90
24632;DHT22;59977;48.782;9.190;2023-11-22T03:48:29;6.20;99.90
24632;DHT22;59977;48.782;9.190;2023-11-22T03:50:54;6.10;99.90
24632;DHT22;59977;48.782;9.190;2023-11-22T03:53:20;6.00;99.90
24632;DHT22;59977;48.782;9.190;2023-11-22T03:55:48;6.30;99.90
24632;DHT22;59977;48.782;9.190;2023-11-22T03:58:14;6.10;99.90
24632;DHT22;59977;48.782;9.190;2023-11-22T04:00:40;6.10;99.90
24632;DHT22;59977;48.782;9.190;2023-11-22T04:03:05;6.20;99.90
24632;DHT22;59977;48.782;9.190;2023-11-22T04:05:31;6.10;99.90
24632;DHT22;59977;48.782;9.190;2023-11-22T04:07:57;5.90;99.90
24632;DHT22;59977;48.782;9.190;2023-11-22T04:10:23;6.60;99.90
24632;DHT22;59977;48.782;9.190;2023-11-22T04:12:49;6.10;99.90
24632;DHT22;59977;48.782;9.190;2023-11-22T04:15:15;6.10;99.90
24632;DHT22;59977;48.782;9.190;2023-11-22T04:17:41;6.20;99.90
24632;DHT22;59977;48.782;9.190;2023-11-22T04:20:08;5.60;99.90
24632;DHT22;59977;48.782;9.190;2023-11-22T04:22:41;5.90;99.90
24632;DHT22;59977;48.782;9.190;2023-11-22T04:27:34;6.10;99.90
24632;DHT22;59977;48.782;9.190;2023-11-22T04:30:00;6.10;99.90
24632;DHT22;59977;48.782;9.190;2023-11-22T04:34:51;5.80;99.90
24632;DHT22;59977;48.782;9.190;2023-11-22T04:39:43;6.20;99.90
24632;DHT22;59977;48.782;9.190;2023-11-22T04:44:35;6.10;99.90
24632;DHT22;59977;48.782;9.190;2023-11-22T04:47:00;6.40;99.90
24632;DHT22;59977;48.782;9.190;2023-11-22T04:49:26;6.20;99.90
24632;DHT22;59977;48.782;9.190;2023-11-22T04:51:52;6.00;99.90
24632;DHT22;59977;48.782;9.190;2023-11-22T04:56:43;6.40;99.90
24632;DHT22;59977;48.782;9.190;2023-11-22T05:04:02;6.80;99.90
24632;DHT22;59977;48.782;9.190;2023-11-22T05:06:27;6.10;99.90
24632;DHT22;59977;48.782;9.190;2023-11-22T05:11:21;6.30;99.90
24632;DHT22;59977;48.782;9.190;2023-11-22T05:16:13;6.60;99.90
24632;DHT22;59977;48.782;9.190;2023-11-22T05:18:38;6.20;99.90
24632;DHT22;59977;48.782;9.190;2023-11-22T05:21:04;5.90;99.90
24632;DHT22;59977;48.782;9.190;2023-11-22T05:25:58;5.80;99.90
24632;DHT22;59977;48.782;9.190;2023-11-22T05:28:25;5.90;99.90
24632;DHT22;59977;48.782;9.190;2023-11-22T05:33:16;5.80;99.90
24632;DHT22;59977;48.782;9.190;2023-11-22T05:43:01;5.90;99.90
24632;DHT22;59977;48.782;9.190;2023-11-22T05:45:27;5.80;99.90
24632;DHT22;59977;48.782;9.190;2023-11-22T05:55:10;5.50;99.90
24632;DHT22;59977;48.782;9.190;2023-11-22T05:57:39;6.10;99.90
24632;DHT22;59977;48.782;9.190;2023-11-22T06:00:06;5.70;99.90
24632;DHT22;59977;48.782;9.190;2023-11-22T06:07:24;5.40;99.90
24632;DHT22;59977;48.782;9.190;2023-11-22T06:12:15;5.70;99.90
24632;DHT22;59977;48.782;9.190;2023-11-22T06:17:07;5.60;99.90
24632;DHT22;59977;48.782;9.190;2023-11-22T06:26:44;5.30;99.90
24632;DHT22;59977;48.782;9.190;2023-11-22T06:29:13;5.40;99.90
24632;DHT22;59977;48.782;9.190;2023-11-22T06:34:05;5.60;99.90
24632;DHT22;59977;48.782;9.190;2023-11-22T06:41:23;5.60;99.90
24632;DHT22;59977;48.782;9.190;2023-11-22T06:43:51;5.60;99.90
24632;DHT22;59977;48.782;9.190;2023-11-22T06:46:16;5.50;99.90
24632;DHT22;59977;48.782;9.190;2023-11-22T06:51:14;5.50;99.90
24632;DHT22;59977;48.782;9.190;2023-11-22T06:53:39;5.30;99.90
24632;DHT22;59977;48.782;9.190;2023-11-22T06:56:06;5.40;99.90
24632;DHT22;59977;48.782;9.190;2023-11-22T06:58:31;5.40;99.90
24632;DHT22;59977;48.782;9.190;2023-11-22T07:05:49;5.30;99.90
24632;DHT22;59977;48.782;9.190;2023-11-22T07:10:42;5.10;99.90
24632;DHT22;59977;48.782;9.190;2023-11-22T07:30:35;5.20;99.90
24632;DHT22;59977;48.782;9.190;2023-11-22T08:33:36;5.00;99.90
24632;DHT22;59977;48.782;9.190;2023-11-22T09:10:16;5.40;99.90
24632;DHT22;59977;48.782;9.190;2023-11-22T09:15:11;5.40;99.90
24632;DHT22;59977;48.782;9.190;2023-11-22T09:34:57;5.40;99.90
24632;DHT22;59977;48.782;9.190;2023-11-22T09:42:16;5.40;99.90
24632;DHT22;59977;48.782;9.190;2023-11-22T09:52:09;5.20;99.90
24632;DHT22;59977;48.782;9.190;2023-11-22T09:54:37;5.30;99.90
24632;DHT22;59977;48.782;9.190;2023-11-22T09:57:06;5.40;99.90
24632;DHT22;59977;48.782;9.190;2023-11-22T09:59:35;5.50;99.90
24632;DHT22;59977;48.782;9.190;2023-11-22T10:04:31;5.50;99.90
24632;DHT22;59977;48.782;9.190;2023-11-22T10:12:01;5.40;99.90
24632;DHT22;59977;48.782;9.190;2023-11-22T10:22:05;5.40;99.90
24632;DHT22;59977;48.782;9.190;2023-11-22T10:24:34;5.50;99.90
24632;DHT22;59977;48.782;9.190;2023-11-22T10:51:31;5.70;99.90
24632;DHT22;59977;48.782;9.190;2023-11-22T11:23:39;5.90;99.90
24632;DHT22;59977;48.782;9.190;2023-11-22T11:36:29;6.10;99.90
24632;DHT22;59977;48.782;9.190;2023-11-22T11:38:59;6.10;99.90
24632;DHT22;59977;48.782;9.190;2023-11-22T11:46:20;6.00;99.90
24632;DHT22;59977;48.782;9.190;2023-11-22T11:48:49;6.00;99.90
24632;DHT22;59977;48.782;9.190;2023-11-22T11:51:17;6.00;99.90
24632;DHT22;59977;48.782;9.190;2023-11-22T12:13:20;5.80;99.90
24632;DHT22;59977;48.782;9.190;2023-11-22T12:15:47;5.60;99.90
24632;DHT22;59977;48.782;9.190;2023-11-22T12:23:06;5.70;99.90
24632;DHT22;59977;48.782;9.190;2023-11-22T12:42:52;5.80;99.90
24632;DHT22;59977;48.782;9.190;2023-11-22T12:47:50;5.70;99.90
24632;DHT22;59977;48.782;9.190;2023-11-22T12:55:51;5.50;99.90
24632;DHT22;59977;48.782;9.190;2023-11-22T12:58:19;5.50;99.90
24632;DHT22;59977;48.782;9.190;2023-11-22T13:00:50;5.50;99.90
24632;DHT22;59977;48.782;9.190;2023-11-22T13:13:22;5.40;99.90
24632;DHT22;59977;48.782;9.190;2023-11-22T13:28:02;5.40;99.90
24632;DHT22;59977;48.782;9.190;2023-11-22T13:42:44;5.50;99.90
24632;DHT22;59977;48.782;9.190;2023-11-22T13:50:08;5.80;99.90
24632;DHT22;59977;48.782;9.190;2023-11-22T13:59:53;5.80;99.90
24632;DHT22;59977;48.782;9.190;2023-11-22T14:02:19;5.50;99.90
24632;DHT22;59977;48.782;9.190;2023-11-22T14:14:29;5.50;99.90
24632;DHT22;59977;48.782;9.190;2023-11-22T14:29:06;5.20;99.90
24632;DHT22;59977;48.782;9.190;2023-11-22T14:33:58;5.40;99.90
24632;DHT22;59977;48.782;9.190;2023-11-22T14:46:14;5.20;99.90
24632;DHT22;59977;48.782;9.190;2023-11-22T15:08:16;5.60;99.90
24632;DHT22;59977;48.782;9.190;2023-11-22T15:13:07;5.30;99.90
24632;DHT22;59977;48.782;9.190;2023-11-22T15:15:34;5.60;99.90
24632;DHT22;59977;48.782;9.190;2023-11-22T15:22:53;5.50;99.90
24632;DHT22;59977;48.782;9.190;2023-11-22T15:35:04;5.40;99.90
24632;DHT22;59977;48.782;9.190;2023-11-22T15:43:29;5.30;99.90
24632;DHT22;59977;48.782;9.190;2023-11-22T15:45:55;6.20;99.90
24632;DHT22;59977;48.782;9.190;2023-11-22T15:48:21;6.70;99.90
24632;DHT22;59977;48.782;9.190;2023-11-22T15:50:47;5.20;99.90
24632;DHT22;59977;48.782;9.190;2023-11-22T15:53:12;5.20;99.90
24632;DHT22;59977;48.782;9.190;2023-11-22T15:55:39;6.80;99.90
24632;DHT22;59977;48.782;9.190;2023-11-22T15:58:05;5.20;99.90
24632;DHT22;59977;48.782;9.190;2023-11-22T16:00:31;5.20;99.90
24632;DHT22;59977;48.782;9.190;2023-11-22T16:02:57;5.20;99.90
24632;DHT22;59977;48.782;9.190;2023-11-22T16:05:23;6.20;99.90
24632;DHT22;59977;48.782;9.190;2023-11-22T16:07:49;5.30;99.90
24632;DHT22;59977;48.782;9.190;2023-11-22T16:10:15;6.30;99.90
24632;DHT22;59977;48.782;9.190;2023-11-22T16:12:42;5.20;99.90
24632;DHT22;59977;48.782;9.190;2023-11-22T16:15:08;5.20;99.90
24632;DHT22;59977;48.782;9.190;2023-11-22T16:17:37;5.20;99.90
24632;DHT22;59977;48.782;9.190;2023-11-22T16:20:06;6.00;99.90
24632;DHT22;59977;48.782;9.190;2023-11-22T16:22:42;5.20;99.90
24632;DHT22;59977;48.782;9.190;2023-11-22T16:25:12;5.20;99.90
24632;DHT22;59977;48.782;9.190;2023-11-22T16:27:38;5.20;99.90
24632;DHT22;59977;48.782;9.190;2023-11-22T16:30:08;5.20;99.90
24632;DHT22;59977;48.782;9.190;2023-11-22T16:32:35;5.20;99.90
24632;DHT22;59977;48.782;9.190;2023-11-22T16:35:02;5.20;99.90
24632;DHT22;59977;48.782;9.190;2023-11-22T16:37:28;5.10;99.90
24632;DHT22;59977;48.782;9.190;2023-11-22T16:39:54;6.20;99.90
24632;DHT22;59977;48.782;9.190;2023-11-22T16:42:21;5.00;99.90
24632;DHT22;59977;48.782;9.190;2023-11-22T16:44:49;5.20;99.90
24632;DHT22;59977;48.782;9.190;2023-11-22T16:47:15;5.00;99.90
24632;DHT22;59977;48.782;9.190;2023-11-22T16:49:46;5.00;99.90
24632;DHT22;59977;48.782;9.190;2023-11-22T16:52:12;6.00;99.90
24632;DHT22;59977;48.782;9.190;2023-11-22T16:54:43;5.10;99.90
24632;DHT22;59977;48.782;9.190;2023-11-22T16:57:09;4.10;99.90
24632;DHT22;59977;48.782;9.190;2023-11-22T16:59:43;5.20;99.90
24632;DHT22;59977;48.782;9.190;2023-11-22T17:02:12;5.20;99.90
24632;DHT22;59977;48.782;9.190;2023-11-22T17:04:39;5.10;99.90
24632;DHT22;59977;48.782;9.190;2023-11-22T17:07:08;5.10;99.90
24632;DHT22;59977;48.782;9.190;2023-11-22T17:09:34;5.10;99.90
24632;DHT22;59977;48.782;9.190;2023-11-22T17:12:03;5.10;99.90
24632;DHT22;59977;48.782;9.190;2023-11-22T17:14:29;5.10;99.90
24632;DHT22;59977;48.782;9.190;2023-11-22T17:16:56;5.00;99.90
24632;DHT22;59977;48.782;9.190;2023-11-22T17:19:21;4.90;99.90
24632;DHT22;59977;48.782;9.190;2023-11-22T17:21:47;4.90;99.90
24632;DHT22;59977;48.782;9.190;2023-11-22T17:24:14;4.90;99.90
24632;DHT22;59977;48.782;9.190;2023-11-22T17:26:40;4.90;99.90
24632;DHT22;59977;48.782;9.190;2023-11-22T17:29:06;4.90;99.90
24632;DHT22;59977;48.782;9.190;2023-11-22T17:31:31;4.90;99.90
24632;DHT22;59977;48.782;9.190;2023-11-22T17:33:57;4.80;99.90
24632;DHT22;59977;48.782;9.190;2023-11-22T17:36:23;5.50;99.90
24632;DHT22;59977;48.782;9.190;2023-11-22T17:38:48;4.90;99.90
24632;DHT22;59977;48.782;9.190;2023-11-22T17:41:14;6.00;99.90
24632;DHT22;59977;48.782;9.190;2023-11-22T17:43:39;4.80;99.90
24632;DHT22;59977;48.782;9.190;2023-11-22T17:46:05;6.10;99.90
24632;DHT22;59977;48.782;9.190;2023-11-22T17:48:33;4.90;99.90
24632;DHT22;59977;48.782;9.190;2023-11-22T17:51:00;4.80;99.90
24632;DHT22;59977;48.782;9.190;2023-11-22T17:53:26;4.80;99.90
24632;DHT22;59977;48.782;9.190;2023-11-22T17:55:52;4.90;99.90
24632;DHT22;59977;48.782;9.190;2023-11-22T17:58:18;4.90;99.90
24632;DHT22;59977;48.782;9.190;2023-11-22T18:00:45;4.90;99.90
24632;DHT22;59977;48.782;9.190;2023-11-22T18:03:11;4.90;99.90
24632;DHT22;59977;48.782;9.190;2023-11-22T18:05:37;5.00;99.90
24632;DHT22;59977;48.782;9.190;2023-11-22T18:08:03;5.00;99.90
24632;DHT22;59977;48.782;9.190;2023-11-22T18:10:28;5.00;99.90
24632;DHT22;59977;48.782;9.190;2023-11-22T18:12:55;5.00;99.90
24632;DHT22;59977;48.782;9.190;2023-11-22T18:15:22;5.00;99.90
24632;DHT22;59977;48.782;9.190;2023-11-22T18:17:48;4.90;99.90
24632;DHT22;59977;48.782;9.190;2023-11-22T18:20:15;4.80;99.90
24632;DHT22;59977;48.782;9.190;2023-11-22T18:22:41;5.60;99.90
24632;DHT22;59977;48.782;9.190;2023-11-22T18:25:07;6.10;99.90
24632;DHT22;59977;48.782;9.190;2023-11-22T18:27:33;4.80;99.90
24632;DHT22;59977;48.782;9.190;2023-11-22T18:29:59;6.50;99.90
24632;DHT22;59977;48.782;9.190;2023-11-22T18:32:26;4.70;99.90
24632;DHT22;59977;48.782;9.190;2023-11-22T18:34:52;4.70;99.90
24632;DHT22;59977;48.782;9.190;2023-11-22T18:37:18;4.60;99.90
24632;DHT22;59977;48.782;9.190;2023-11-22T18:39:44;4.70;99.90
24632;DHT22;59977;48.782;9.190;2023-11-22T18:42:11;4.70;99.90
24632;DHT22;59977;48.782;9.190;2023-11-22T18:44:38;4.70;99.90
24632;DHT22;59977;48.782;9.190;2023-11-22T18:47:04;4.70;99.90
24632;DHT22;59977;48.782;9.190;2023-11-22T18:49:30;4.70;99.90
24632;DHT22;59977;48.782;9.190;2023-11-22T18:51:56;4.70;99.90
24632;DHT22;59977;48.782;9.190;2023-11-22T18:54:22;4.80;99.90
24632;DHT22;59977;48.782;9.190;2023-11-22T18:56:48;4.90;99.90
24632;DHT22;59977;48.782;9.190;2023-11-22T18:59:13;4.90;99.90
24632;DHT22;59977;48.782;9.190;2023-11-22T19:01:39;4.90;99.90
24632;DHT22;59977;48.782;9.190;2023-11-22T19:04:05;4.90;99.90
24632;DHT22;59977;48.782;9.190;2023-11-22T19:06:35;4.90;99.90
24632;DHT22;59977;48.782;9.190;2023-11-22T19:09:01;4.80;99.90
24632;DHT22;59977;48.782;9.190;2023-11-22T19:11:26;4.80;99.90
24632;DHT22;59977;48.782;9.190;2023-11-22T19:13:52;4.90;99.90
24632;DHT22;59977;48.782;9.190;2023-11-22T19:16:19;4.80;99.90
24632;DHT22;59977;48.782;9.190;2023-11-22T19:18:46;4.80;99.90
24632;DHT22;59977;48.782;9.190;2023-11-22T19:21:18;4.70;99.90
24632;DHT22;59977;48.782;9.190;2023-11-22T19:23:43;4.70;99.90
24632;DHT22;59977;48.782;9.190;2023-11-22T19:26:09;4.70;99.90
24632;DHT22;59977;48.782;9.190;2023-11-22T19:28:35;4.60;99.90
24632;DHT22;59977;48.782;9.190;2023-11-22T19:31:01;6.50;99.90
24632;DHT22;59977;48.782;9.190;2023-11-22T19:33:27;4.70;99.90
24632;DHT22;59977;48.782;9.190;2023-11-22T19:35:53;4.70;99.90
24632;DHT22;59977;48.782;9.190;2023-11-22T19:38:19;6.70;99.90
24632;DHT22;59977;48.782;9.190;2023-11-22T19:40:46;4.80;99.90
24632;DHT22;59977;48.782;9.190;2023-11-22T19:43:12;4.80;99.90
24632;DHT22;59977;48.782;9.190;2023-11-22T19:45:39;5.30;99.90
24632;DHT22;59977;48.782;9.190;2023-11-22T19:48:05;4.80;99.90
24632;DHT22;59977;48.782;9.190;2023-11-22T19:50:31;4.80;99.90
24632;DHT22;59977;48.782;9.190;2023-11-22T19:52:57;4.80;99.90
24632;DHT22;59977;48.782;9.190;2023-11-22T19:55:23;4.80;99.90
24632;DHT22;59977;48.782;9.190;2023-11-22T19:57:48;4.80;99.90
24632;DHT22;59977;48.782;9.190;2023-11-22T20:00:14;4.80;99.90
24632;DHT22;59977;48.782;9.190;2023-11-22T20:02:40;4.80;99.90
24632;DHT22;59977;48.782;9.190;2023-11-22T20:05:06;6.60;99.90
24632;DHT22;59977;48.782;9.190;2023-11-22T20:07:33;4.90;99.90
24632;DHT22;59977;48.782;9.190;2023-11-22T20:10:00;5.00;99.90
24632;DHT22;59977;48.782;9.190;2023-11-22T20:12:26;4.90;99.90
24632;DHT22;59977;48.782;9.190;2023-11-22T20:14:51;4.90;99.90
24632;DHT22;59977;48.782;9.190;2023-11-22T20:17:17;4.80;99.90
24632;DHT22;59977;48.782;9.190;2023-11-22T20:19:43;4.80;99.90
24632;DHT22;59977;48.782;9.190;2023-11-22T20:22:08;4.80;99.90
24632;DHT22;59977;48.782;9.190;2023-11-22T20:24:36;4.70;99.90
24632;DHT22;59977;48.782;9.190;2023-11-22T20:27:03;4.80;99.90
24632;DHT22;59977;48.782;9.190;2023-11-22T20:29:28;4.70;99.90
24632;DHT22;59977;48.782;9.190;2023-11-22T20:31:56;5.70;99.90
24632;DHT22;59977;48.782;9.190;2023-11-22T20:34:21;5.30;99.90
24632;DHT22;59977;48.782;9.190;2023-11-22T20:36:48;4.70;99.90
24632;DHT22;59977;48.782;9.190;2023-11-22T20:39:15;4.70;99.90
24632;DHT22;59977;48.782;9.190;2023-11-22T20:41:47;4.70;99.90
24632;DHT22;59977;48.782;9.190;2023-11-22T20:44:15;4.60;99.90
24632;DHT22;59977;48.782;9.190;2023-11-22T20:46:41;4.80;99.90
24632;DHT22;59977;48.782;9.190;2023-11-22T20:49:07;4.60;99.90
24632;DHT22;59977;48.782;9.190;2023-11-22T20:51:34;4.50;99.90
24632;DHT22;59977;48.782;9.190;2023-11-22T20:54:02;4.50;99.90
24632;DHT22;59977;48.782;9.190;2023-11-22T20:56:28;4.50;99.90
24632;DHT22;59977;48.782;9.190;2023-11-22T20:58:54;5.30;99.90
24632;DHT22;59977;48.782;9.190;2023-11-22T21:01:20;6.10;99.90
24632;DHT22;59977;48.782;9.190;2023-11-22T21:03:45;5.50;99.90
24632;DHT22;59977;48.782;9.190;2023-11-22T21:06:11;5.60;99.90
24632;DHT22;59977;48.782;9.190;2023-11-22T21:08:42;4.40;99.90
24632;DHT22;59977;48.782;9.190;2023-11-22T21:11:07;4.40;99.90
24632;DHT22;59977;48.782;9.190;2023-11-22T21:13:33;4.30;99.90
24632;DHT22;59977;48.782;9.190;2023-11-22T21:15:58;4.30;99.90
24632;DHT22;59977;48.782;9.190;2023-11-22T21:18:24;5.90;99.90
24632;DHT22;59977;48.782;9.190;2023-11-22T21:20:50;4.90;99.90
24632;DHT22;59977;48.782;9.190;2023-11-22T21:23:16;4.20;99.90
24632;DHT22;59977;48.782;9.190;2023-11-22T21:25:42;4.20;99.90
24632;DHT22;59977;48.782;9.190;2023-11-22T21:28:08;4.20;99.90
24632;DHT22;59977;48.782;9.190;2023-11-22T21:30:33;4.20;99.90
24632;DHT22;59977;48.782;9.190;2023-11-22T21:33:00;5.40;99.90
24632;DHT22;59977;48.782;9.190;2023-11-22T21:35:25;4.10;99.90
24632;DHT22;59977;48.782;9.190;2023-11-22T21:37:52;4.10;99.90
24632;DHT22;59977;48.782;9.190;2023-11-22T21:40:18;4.10;99.90
24632;DHT22;59977;48.782;9.190;2023-11-22T21:42:44;4.10;99.90
24632;DHT22;59977;48.782;9.190;2023-11-22T21:45:10;4.00;99.90
24632;DHT22;59977;48.782;9.190;2023-11-22T21:47:37;4.00;99.90
24632;DHT22;59977;48.782;9.190;2023-11-22T21:50:04;4.00;99.90
24632;DHT22;59977;48.782;9.190;2023-11-22T21:52:30;4.00;99.90
24632;DHT22;59977;48.782;9.190;2023-11-22T21:54:58;4.00;99.90
24632;DHT22;59977;48.782;9.190;2023-11-22T21:57:24;4.00;99.90
24632;DHT22;59977;48.782;9.190;2023-11-22T21:59:49;4.00;99.90
24632;DHT22;59977;48.782;9.190;2023-11-22T22:02:18;5.30;99.90
24632;DHT22;59977;48.782;9.190;2023-11-22T22:04:44;3.90;99.90
24632;DHT22;59977;48.782;9.190;2023-11-22T22:07:11;4.00;99.90
24632;DHT22;59977;48.782;9.190;2023-11-22T22:09:36;4.00;99.90
24632;DHT22;59977;48.782;9.190;2023-11-22T22:12:05;4.00;99.90
24632;DHT22;59977;48.782;9.190;2023-11-22T22:14:31;4.00;99.90
24632;DHT22;59977;48.782;9.190;2023-11-22T22:16:57;4.00;99.90
24632;DHT22;59977;48.782;9.190;2023-11-22T22:19:23;4.00;99.90
24632;DHT22;59977;48.782;9.190;2023-11-22T22:21:49;4.00;99.90
24632;DHT22;59977;48.782;9.190;2023-11-22T22:24:15;4.00;99.90
24632;DHT22;59977;48.782;9.190;2023-11-22T22:26:40;4.00;99.90
24632;DHT22;59977;48.782;9.190;2023-11-22T22:29:07;4.00;99.90
24632;DHT22;59977;48.782;9.190;2023-11-22T22:31:37;4.00;99.90
24632;DHT22;59977;48.782;9.190;2023-11-22T22:34:03;4.70;99.90
24632;DHT22;59977;48.782;9.190;2023-11-22T22:36:29;5.50;99.90
24632;DHT22;59977;48.782;9.190;2023-11-22T22:38:54;3.90;99.90
24632;DHT22;59977;48.782;9.190;2023-11-22T22:41:21;3.90;99.90
24632;DHT22;59977;48.782;9.190;2023-11-22T22:43:47;4.00;99.90
24632;DHT22;59977;48.782;9.190;2023-11-22T22:46:13;4.00;99.90
24632;DHT22;59977;48.782;9.190;2023-11-22T22:48:38;4.00;99.90
24632;DHT22;59977;48.782;9.190;2023-11-22T22:51:04;4.00;99.90
24632;DHT22;59977;48.782;9.190;2023-11-22T22:53:31;4.00;99.90
24632;DHT22;59977;48.782;9.190;2023-11-22T22:55:57;4.00;99.90
24632;DHT22;59977;48.782;9.190;2023-11-22T22:58:22;4.00;99.90
24632;DHT22;59977;48.782;9.190;2023-11-22T23:00:48;3.90;99.90
24632;DHT22;59977;48.782;9.190;2023-11-22T23:03:14;3.90;99.90
24632;DHT22;59977;48.782;9.190;2023-11-22T23:05:40;4.50;99.90
24632;DHT22;59977;48.782;9.190;2023-11-22T23:08:06;4.00;99.90
24632;DHT22;59977;48.782;9.190;2023-11-22T23:10:32;5.10;99.90
24632;DHT22;59977;48.782;9.190;2023-11-22T23:12:57;5.40;99.90
24632;DHT22;59977;48.782;9.190;2023-11-22T23:15:24;3.90;99.90
24632;DHT22;59977;48.782;9.190;2023-11-22T23:17:50;3.90;99.90
24632;DHT22;59977;48.782;9.190;2023-11-22T23:20:16;3.90;99.90
24632;DHT22;59977;48.782;9.190;2023-11-22T23:22:43;3.90;99.90
24632;DHT22;59977;48.782;9.190;2023-11-22T23:25:10;3.90;99.90
24632;DHT22;59977;48.782;9.190;2023-11-22T23:27:36;3.90;99.90
24632;DHT22;59977;48.782;9.190;2023-11-22T23:30:03;3.90;99.90
24632;DHT22;59977;48.782;9.190;2023-11-22T23:32:31;3.80;99.90
24632;DHT22;59977;48.782;9.190;2023-11-22T23:34:57;3.80;99.90
24632;DHT22;59977;48.782;9.190;2023-11-22T23:37:23;3.70;99.90
24632;DHT22;59977;48.782;9.190;2023-11-22T23:39:49;3.70;99.90
24632;DHT22;59977;48.782;9.190;2023-11-22T23:42:17;3.70;99.90
24632;DHT22;59977;48.782;9.190;2023-11-22T23:44:44;3.70;99.90
24632;DHT22;59977;48.782;9.190;2023-11-22T23:47:10;3.60;99.90
24632;DHT22;59977;48.782;9.190;2023-11-22T23:49:36;3.60;99.90
24632;DHT22;59977;48.782;9.190;2023-11-22T23:52:03;3.60;99.90
24632;DHT22;59977;48.782;9.190;2023-11-22T23:54:28;3.70;99.90
24632;DHT22;59977;48.782;9.190;2023-11-22T23:56:54;3.60;99.90
24632;DHT22;59977;48.782;9.190;2023-11-22T23:59:19;3.60;99.90
